Time;durP1;ratioP1;P1;durP2;ratioP2;P2;SDS_P1;SDS_P2;PMS_P1;PMS_P2;Temp;Humidity;BMP_temperature;BMP_pressure;BME280_temperature;BME280_humidity;BME280_pressure;Samples;Min_cycle;Max_cycle;Signal;HPM_P1;HPM_P2
2021/07/08 00:01:53;;;;;;;3.35;2.00;;;;;;;;;;5029288;28;20187;-88
2021/07/08 00:04:19;;;;;;;1.88;1.77;;;;;;;;;;5029144;28;20265;-87
2021/07/08 00:06:45;;;;;;;2.25;1.60;;;;;;;;;;5012642;28;20216;-89
2021/07/08 00:09:11;;;;;;;5.47;2.13;;;;;;;;;;5008717;28;20203;-86
2021/07/08 00:11:37;;;;;;;3.13;1.83;;;;;;;;;;5010387;28;20426;-87
2021/07/08 00:14:05;;;;;;;2.47;1.52;;;;;;;;;;5028520;28;20212;-86
2021/07/08 00:16:31;;;;;;;3.00;1.67;;;;;;;;;;5028541;28;20290;-86
2021/07/08 00:18:57;;;;;;;2.30;1.85;;;;;;;;;;5028547;28;20237;-86
2021/07/08 00:21:23;;;;;;;7.80;2.17;;;;;;;;;;5024270;28;20582;-87
2021/07/08 00:23:50;;;;;;;3.25;2.05;;;;;;;;;;5010312;28;20183;-89
2021/07/08 00:26:16;;;;;;;2.22;1.63;;;;;;;;;;5028448;28;20191;-88
2021/07/08 00:28:44;;;;;;;4.20;1.95;;;;;;;;;;5012902;28;20214;-87
2021/07/08 00:31:10;;;;;;;6.10;2.33;;;;;;;;;;5013183;28;20216;-86
2021/07/08 00:33:37;;;;;;;4.03;2.20;;;;;;;;;;5025721;28;20191;-86
2021/07/08 00:36:03;;;;;;;4.70;1.70;;;;;;;;;;5024438;28;20516;-86
2021/07/08 00:38:29;;;;;;;6.80;2.63;;;;;;;;;;5027575;28;20267;-87
2021/07/08 00:40:55;;;;;;;2.30;1.87;;;;;;;;;;5028005;28;20195;-87
2021/07/08 00:43:21;;;;;;;2.15;1.73;;;;;;;;;;5027937;28;20505;-86
2021/07/08 00:45:47;;;;;;;4.78;1.95;;;;;;;;;;5027125;28;20197;-87
2021/07/08 00:48:13;;;;;;;5.05;1.90;;;;;;;;;;5023710;28;20179;-87
2021/07/08 00:50:42;;;;;;;2.50;1.92;;;;;;;;;;5009837;28;20179;-87
2021/07/08 00:53:09;;;;;;;2.40;2.20;;;;;;;;;;5013048;28;20183;-87
2021/07/08 00:55:35;;;;;;;3.63;2.00;;;;;;;;;;5027882;28;20186;-87
2021/07/08 00:58:01;;;;;;;3.90;2.20;;;;;;;;;;5012733;28;20525;-87
2021/07/08 01:00:34;;;;;;;2.83;1.70;;;;;;;;;;5024268;28;20467;-86
2021/07/08 01:03:00;;;;;;;6.65;1.75;;;;;;;;;;5023657;28;20182;-86
2021/07/08 01:05:31;;;;;;;1.95;1.75;;;;;;;;;;5010379;28;20167;-86
2021/07/08 01:07:57;;;;;;;9.45;2.90;;;;;;;;;;5028046;28;20195;-87
2021/07/08 01:10:24;;;;;;;5.13;2.45;;;;;;;;;;5012007;28;20211;-87
2021/07/08 01:12:50;;;;;;;2.00;1.90;;;;;;;;;;5012000;28;20208;-86
2021/07/08 01:15:16;;;;;;;2.03;1.80;;;;;;;;;;5023952;28;20281;-86
2021/07/08 01:17:44;;;;;;;2.95;1.52;;;;;;;;;;5009176;28;20226;-85
2021/07/08 01:20:10;;;;;;;2.10;1.90;;;;;;;;;;5012348;28;20195;-87
2021/07/08 01:22:37;;;;;;;2.63;2.35;;;;;;;;;;5013089;28;20200;-88
2021/07/08 01:25:05;;;;;;;3.17;1.92;;;;;;;;;;5027229;28;20186;-86
2021/07/08 01:27:31;;;;;;;3.20;1.85;;;;;;;;;;5024393;28;20182;-87
2021/07/08 01:29:58;;;;;;;4.20;1.92;;;;;;;;;;5022999;28;20232;-87
2021/07/08 01:32:24;;;;;;;2.13;1.90;;;;;;;;;;5010282;28;20660;-87
2021/07/08 01:34:50;;;;;;;4.70;2.03;;;;;;;;;;5028091;28;20655;-86
2021/07/08 01:37:17;;;;;;;2.35;2.05;;;;;;;;;;5027790;28;20190;-87
2021/07/08 01:39:46;;;;;;;1.90;1.80;;;;;;;;;;5010025;28;20212;-86
2021/07/08 01:42:13;;;;;;;2.65;2.28;;;;;;;;;;5022926;28;20241;-87
2021/07/08 01:44:39;;;;;;;2.30;2.10;;;;;;;;;;5011086;28;20200;-87
2021/07/08 01:47:06;;;;;;;2.35;2.15;;;;;;;;;;5027666;28;20249;-87
2021/07/08 01:49:33;;;;;;;3.75;1.95;;;;;;;;;;5027634;28;20743;-87
2021/07/08 01:51:59;;;;;;;2.45;2.25;;;;;;;;;;5027781;28;20233;-87
2021/07/08 01:54:25;;;;;;;2.17;1.98;;;;;;;;;;5023261;28;20179;-86
2021/07/08 01:56:51;;;;;;;2.13;1.93;;;;;;;;;;5035403;28;20178;-88
2021/07/08 01:59:17;;;;;;;2.08;1.70;;;;;;;;;;5012926;28;20915;-88
2021/07/08 02:01:43;;;;;;;2.47;2.38;;;;;;;;;;5027429;28;20198;-87
2021/07/08 02:04:09;;;;;;;2.92;2.03;;;;;;;;;;5027508;28;20185;-88
2021/07/08 02:06:35;;;;;;;3.45;1.90;;;;;;;;;;5024558;28;20202;-88
2021/07/08 02:09:01;;;;;;;2.63;2.28;;;;;;;;;;5007539;28;20282;-86
2021/07/08 02:11:27;;;;;;;7.65;2.13;;;;;;;;;;5027011;28;20536;-87
2021/07/08 02:13:53;;;;;;;2.15;2.00;;;;;;;;;;5027367;28;20277;-86
2021/07/08 02:16:19;;;;;;;3.40;2.00;;;;;;;;;;5027507;28;20226;-87
2021/07/08 02:18:45;;;;;;;3.30;2.30;;;;;;;;;;5025728;28;20956;-88
2021/07/08 02:21:12;;;;;;;2.80;1.90;;;;;;;;;;5024208;28;20256;-88
2021/07/08 02:23:38;;;;;;;3.65;1.77;;;;;;;;;;5013858;28;20183;-87
2021/07/08 02:26:05;;;;;;;2.10;1.90;;;;;;;;;;5030479;28;20194;-85
2021/07/08 02:28:31;;;;;;;4.60;3.00;;;;;;;;;;5030634;28;20210;-88
2021/07/08 02:30:57;;;;;;;3.17;2.08;;;;;;;;;;5015509;28;20238;-86
2021/07/08 02:33:24;;;;;;;2.20;2.00;;;;;;;;;;5026551;28;20193;-88
2021/07/08 02:35:51;;;;;;;5.15;2.00;;;;;;;;;;5038503;28;20184;-86
2021/07/08 02:38:17;;;;;;;3.83;2.70;;;;;;;;;;5015635;28;20191;-86
2021/07/08 02:40:43;;;;;;;2.45;2.10;;;;;;;;;;5030140;28;20205;-85
2021/07/08 02:43:09;;;;;;;5.72;2.20;;;;;;;;;;5030641;28;20182;-87
2021/07/08 02:45:37;;;;;;;2.92;2.15;;;;;;;;;;5012415;28;20200;-85
2021/07/08 02:48:04;;;;;;;2.10;2.00;;;;;;;;;;5026251;28;20182;-86
2021/07/08 02:50:32;;;;;;;3.00;2.22;;;;;;;;;;5029074;28;20183;-87
2021/07/08 02:52:58;;;;;;;3.55;2.33;;;;;;;;;;5034799;28;20197;-86
2021/07/08 02:55:24;;;;;;;2.33;2.13;;;;;;;;;;5037600;28;20201;-87
2021/07/08 02:57:50;;;;;;;3.38;2.13;;;;;;;;;;5029483;28;20185;-87
2021/07/08 03:00:17;;;;;;;4.60;3.47;;;;;;;;;;5024797;28;20256;-85
2021/07/08 03:02:43;;;;;;;4.32;2.15;;;;;;;;;;5011621;28;20204;-87
2021/07/08 03:05:10;;;;;;;7.22;2.17;;;;;;;;;;5014864;28;20190;-87
2021/07/08 03:07:37;;;;;;;4.45;2.30;;;;;;;;;;5029960;28;20186;-87
2021/07/08 03:10:03;;;;;;;3.15;2.15;;;;;;;;;;5014426;28;20209;-87
2021/07/08 03:12:29;;;;;;;2.50;2.05;;;;;;;;;;5026412;28;20190;-85
2021/07/08 03:14:55;;;;;;;3.33;2.17;;;;;;;;;;5025677;28;20185;-84
2021/07/08 03:17:21;;;;;;;2.65;2.20;;;;;;;;;;5030169;28;20464;-86
2021/07/08 03:19:47;;;;;;;2.60;1.87;;;;;;;;;;5014541;28;20190;-86
2021/07/08 03:22:13;;;;;;;3.05;2.40;;;;;;;;;;5029523;28;20429;-87
2021/07/08 03:24:39;;;;;;;2.58;1.83;;;;;;;;;;5027407;28;20187;-86
2021/07/08 03:27:05;;;;;;;4.33;2.97;;;;;;;;;;5024550;28;20196;-85
2021/07/08 03:29:31;;;;;;;2.50;2.30;;;;;;;;;;5028495;28;20478;-86
2021/07/08 03:31:57;;;;;;;2.30;2.10;;;;;;;;;;5028673;28;20190;-85
2021/07/08 03:34:23;;;;;;;3.50;2.88;;;;;;;;;;5029498;28;20434;-87
2021/07/08 03:36:49;;;;;;;2.13;2.00;;;;;;;;;;5028290;28;20192;-87
2021/07/08 03:39:15;;;;;;;6.35;2.10;;;;;;;;;;5009498;28;20448;-87
2021/07/08 03:41:41;;;;;;;4.15;2.40;;;;;;;;;;5010744;28;20190;-87
2021/07/08 03:44:07;;;;;;;3.97;2.20;;;;;;;;;;5014176;28;20179;-86
2021/07/08 03:46:33;;;;;;;2.25;2.00;;;;;;;;;;5029716;28;20675;-85
2021/07/08 03:48:59;;;;;;;2.80;2.10;;;;;;;;;;5014118;28;20226;-86
2021/07/08 03:51:25;;;;;;;2.63;2.33;;;;;;;;;;5024458;28;20213;-87
2021/07/08 03:53:51;;;;;;;2.70;2.33;;;;;;;;;;5022029;28;20508;-87
2021/07/08 03:56:17;;;;;;;3.10;2.17;;;;;;;;;;5014315;28;20438;-85
2021/07/08 03:58:43;;;;;;;3.37;2.57;;;;;;;;;;5029603;28;20446;-86
2021/07/08 04:01:08;;;;;;;2.43;2.03;;;;;;;;;;5013261;28;20455;-86
2021/07/08 04:03:34;;;;;;;2.27;2.07;;;;;;;;;;5025807;28;20432;-86
2021/07/08 04:06:00;;;;;;;2.80;2.43;;;;;;;;;;5009189;28;20783;-85
2021/07/08 04:08:26;;;;;;;4.70;1.90;;;;;;;;;;5011350;28;20457;-87
2021/07/08 04:10:52;;;;;;;2.40;2.20;;;;;;;;;;5028376;28;20198;-86
2021/07/08 04:13:20;;;;;;;3.97;2.30;;;;;;;;;;5028792;28;20493;-86
2021/07/08 04:15:46;;;;;;;5.13;2.47;;;;;;;;;;5012491;28;20842;-86
2021/07/08 04:18:13;;;;;;;5.30;2.83;;;;;;;;;;5024068;28;20181;-85
2021/07/08 04:20:39;;;;;;;2.40;2.20;;;;;;;;;;5011136;28;20175;-86
2021/07/08 04:23:05;;;;;;;2.97;2.70;;;;;;;;;;5013367;28;20186;-85
2021/07/08 04:25:32;;;;;;;5.63;2.30;;;;;;;;;;5028164;28;20194;-85
2021/07/08 04:27:58;;;;;;;2.38;2.17;;;;;;;;;;5013355;28;20496;-85
2021/07/08 04:30:24;;;;;;;4.33;2.90;;;;;;;;;;5023707;28;20472;-87
2021/07/08 04:32:51;;;;;;;5.65;2.22;;;;;;;;;;5021041;28;20483;-85
2021/07/08 04:35:22;;;;;;;4.45;2.45;;;;;;;;;;5013266;28;20197;-86
2021/07/08 04:37:49;;;;;;;3.20;2.50;;;;;;;;;;5013588;28;20190;-86
2021/07/08 04:40:17;;;;;;;2.53;2.10;;;;;;;;;;5012211;28;20986;-84
2021/07/08 04:42:43;;;;;;;3.53;2.78;;;;;;;;;;5011660;28;20185;-86
2021/07/08 04:45:10;;;;;;;3.33;1.95;;;;;;;;;;5008378;28;20185;-85
2021/07/08 04:47:40;;;;;;;2.65;1.90;;;;;;;;;;5024737;28;20188;-86
2021/07/08 04:50:08;;;;;;;3.67;2.55;;;;;;;;;;5027879;28;20209;-86
2021/07/08 04:52:34;;;;;;;4.88;2.10;;;;;;;;;;5027910;28;20196;-86
2021/07/08 04:55:00;;;;;;;4.93;2.60;;;;;;;;;;5027628;28;20643;-86
2021/07/08 04:57:27;;;;;;;4.10;2.40;;;;;;;;;;5024152;28;20185;-85
2021/07/08 04:59:53;;;;;;;2.60;2.30;;;;;;;;;;5009005;28;20446;-86
2021/07/08 05:02:19;;;;;;;2.67;2.30;;;;;;;;;;5027127;28;20187;-86
2021/07/08 05:04:45;;;;;;;3.88;2.60;;;;;;;;;;5012692;28;20440;-85
2021/07/08 05:07:12;;;;;;;1.88;1.75;;;;;;;;;;5013237;28;20177;-86
2021/07/08 05:09:38;;;;;;;3.45;2.45;;;;;;;;;;5025188;28;20210;-87
2021/07/08 05:12:05;;;;;;;4.60;2.60;;;;;;;;;;5022762;28;20186;-86
2021/07/08 05:14:31;;;;;;;3.20;2.20;;;;;;;;;;5027293;28;20416;-87
2021/07/08 05:16:57;;;;;;;2.25;2.05;;;;;;;;;;5027876;28;20226;-87
2021/07/08 05:19:23;;;;;;;4.20;2.30;;;;;;;;;;5027906;28;20207;-86
2021/07/08 05:21:50;;;;;;;7.03;2.40;;;;;;;;;;5026254;28;20433;-87
2021/07/08 05:24:24;;;;;;;3.58;2.78;;;;;;;;;;5008699;28;20456;-87
2021/07/08 05:26:51;;;;;;;3.33;2.88;;;;;;;;;;5008327;28;20183;-86
2021/07/08 05:29:17;;;;;;;4.63;2.90;;;;;;;;;;5027657;28;20241;-86
2021/07/08 05:31:43;;;;;;;3.80;2.50;;;;;;;;;;5026937;28;20187;-86
2021/07/08 05:34:09;;;;;;;4.72;2.22;;;;;;;;;;5027834;28;20174;-86
2021/07/08 05:36:36;;;;;;;9.63;3.43;;;;;;;;;;5024964;28;20296;-86
2021/07/08 05:39:02;;;;;;;2.63;2.42;;;;;;;;;;5008245;28;20456;-85
2021/07/08 05:41:28;;;;;;;3.10;2.33;;;;;;;;;;5026543;28;20187;-87
2021/07/08 05:43:54;;;;;;;2.97;2.40;;;;;;;;;;5012280;28;20253;-84
2021/07/08 05:46:22;;;;;;;3.25;2.05;;;;;;;;;;5012356;28;20644;-85
2021/07/08 05:48:48;;;;;;;2.53;2.33;;;;;;;;;;5026323;28;20790;-85
2021/07/08 05:51:14;;;;;;;4.45;3.25;;;;;;;;;;5022208;28;20637;-85
2021/07/08 05:53:40;;;;;;;2.43;2.23;;;;;;;;;;5026090;28;20206;-85
2021/07/08 05:56:06;;;;;;;2.60;2.30;;;;;;;;;;5028474;28;20724;-85
2021/07/08 05:58:32;;;;;;;2.55;2.35;;;;;;;;;;5031306;28;20233;-86
2021/07/08 06:00:59;;;;;;;2.85;2.50;;;;;;;;;;5030496;28;20238;-86
2021/07/08 06:03:25;;;;;;;2.70;2.50;;;;;;;;;;5026998;28;20253;-86
2021/07/08 06:05:51;;;;;;;5.93;2.38;;;;;;;;;;5023208;28;20205;-86
2021/07/08 06:08:18;;;;;;;2.95;2.65;;;;;;;;;;5015848;28;20255;-86
2021/07/08 06:10:44;;;;;;;7.80;2.67;;;;;;;;;;5015231;28;20198;-86
2021/07/08 06:13:10;;;;;;;9.25;3.25;;;;;;;;;;5031126;28;20170;-87
2021/07/08 06:15:36;;;;;;;3.58;2.50;;;;;;;;;;5027838;28;20186;-86
2021/07/08 06:18:03;;;;;;;3.50;2.50;;;;;;;;;;5011472;28;20203;-85
2021/07/08 06:20:29;;;;;;;8.40;2.97;;;;;;;;;;5014964;28;20183;-86
2021/07/08 06:22:55;;;;;;;2.53;2.33;;;;;;;;;;5030627;28;20668;-85
2021/07/08 06:25:22;;;;;;;3.05;2.75;;;;;;;;;;5015494;28;20190;-87
2021/07/08 06:27:50;;;;;;;3.35;2.55;;;;;;;;;;5014875;28;20206;-86
2021/07/08 06:30:16;;;;;;;2.67;1.95;;;;;;;;;;5025880;28;20251;-86
2021/07/08 06:32:43;;;;;;;2.60;2.30;;;;;;;;;;5028094;28;20202;-85
2021/07/08 06:35:09;;;;;;;3.17;2.55;;;;;;;;;;5030471;28;20329;-85
2021/07/08 06:37:35;;;;;;;6.72;2.53;;;;;;;;;;5030660;28;20183;-87
2021/07/08 06:40:02;;;;;;;2.58;2.38;;;;;;;;;;5030299;28;20214;-85
2021/07/08 06:42:28;;;;;;;3.28;2.35;;;;;;;;;;5010600;28;20257;-86
2021/07/08 06:44:54;;;;;;;2.50;2.30;;;;;;;;;;5011259;28;20175;-86
2021/07/08 06:47:21;;;;;;;2.75;2.50;;;;;;;;;;5031117;28;20179;-86
2021/07/08 06:49:47;;;;;;;4.57;3.15;;;;;;;;;;5030493;28;20279;-86
2021/07/08 06:52:15;;;;;;;2.40;2.20;;;;;;;;;;5029946;28;20182;-86
2021/07/08 06:54:41;;;;;;;3.95;2.97;;;;;;;;;;5028058;28;20520;-85
2021/07/08 06:57:08;;;;;;;4.13;2.80;;;;;;;;;;5025358;28;20266;-86
2021/07/08 06:59:34;;;;;;;4.60;2.97;;;;;;;;;;5028660;28;20991;-83
2021/07/08 07:02:00;;;;;;;2.73;2.53;;;;;;;;;;5029657;28;20195;-87
2021/07/08 07:04:26;;;;;;;2.58;2.28;;;;;;;;;;5030479;28;20517;-86
2021/07/08 07:06:52;;;;;;;4.45;2.53;;;;;;;;;;5029105;28;20186;-87
2021/07/08 07:09:19;;;;;;;4.28;2.55;;;;;;;;;;5010013;28;20213;-87
2021/07/08 07:11:46;;;;;;;4.90;3.00;;;;;;;;;;5011457;28;20174;-85
2021/07/08 07:14:12;;;;;;;4.45;2.63;;;;;;;;;;5014634;28;20270;-85
2021/07/08 07:16:38;;;;;;;4.70;2.87;;;;;;;;;;5029805;28;20230;-87
2021/07/08 07:19:04;;;;;;;4.65;3.05;;;;;;;;;;5014623;28;20457;-86
2021/07/08 07:21:30;;;;;;;3.22;2.90;;;;;;;;;;5025738;28;20217;-86
2021/07/08 07:23:56;;;;;;;3.03;2.80;;;;;;;;;;5025835;28;20183;-85
2021/07/08 07:26:22;;;;;;;3.00;2.70;;;;;;;;;;5010366;28;20283;-86
2021/07/08 07:28:48;;;;;;;3.33;3.03;;;;;;;;;;5014388;28;20294;-86
2021/07/08 07:31:15;;;;;;;5.07;2.85;;;;;;;;;;5029004;28;20201;-85
2021/07/08 07:33:44;;;;;;;5.45;2.83;;;;;;;;;;5011953;28;20182;-87
2021/07/08 07:36:11;;;;;;;3.67;2.70;;;;;;;;;;5025467;28;20243;-87
2021/07/08 07:38:41;;;;;;;5.82;2.95;;;;;;;;;;5026538;28;20216;-88
2021/07/08 07:41:07;;;;;;;3.40;2.70;;;;;;;;;;5013976;28;20186;-86
2021/07/08 07:43:34;;;;;;;4.10;2.97;;;;;;;;;;5029192;28;20183;-88
2021/07/08 07:46:00;;;;;;;5.93;3.00;;;;;;;;;;5029659;28;20257;-86
2021/07/08 07:48:26;;;;;;;3.53;2.90;;;;;;;;;;5025079;28;20190;-86
2021/07/08 07:50:52;;;;;;;3.67;2.90;;;;;;;;;;5037270;28;20537;-86
2021/07/08 07:53:19;;;;;;;7.87;4.90;;;;;;;;;;5029072;28;20187;-87
2021/07/08 07:55:45;;;;;;;4.38;2.95;;;;;;;;;;5029009;28;21005;-88
2021/07/08 07:58:11;;;;;;;3.85;3.10;;;;;;;;;;5028965;28;20271;-87
2021/07/08 08:00:37;;;;;;;3.28;2.97;;;;;;;;;;5010796;28;20190;-85
2021/07/08 08:03:03;;;;;;;4.15;2.88;;;;;;;;;;5023471;28;20187;-83
2021/07/08 08:05:36;;;;;;;6.20;3.00;;;;;;;;;;5027967;28;20179;-82
2021/07/08 08:10:47;;;;;;;3.08;2.42;;;;;;;;;;5012524;28;20619;-81
2021/07/08 08:13:13;;;;;;;5.53;2.88;;;;;;;;;;5012694;28;20179;-81
2021/07/08 08:15:40;;;;;;;4.82;3.35;;;;;;;;;;5025328;28;20186;-84
2021/07/08 08:18:06;;;;;;;2.85;2.20;;;;;;;;;;5023657;28;20179;-83
2021/07/08 08:20:32;;;;;;;3.72;2.05;;;;;;;;;;5027093;28;20183;-85
2021/07/08 08:22:58;;;;;;;2.90;2.60;;;;;;;;;;5012428;28;20400;-84
2021/07/08 08:25:24;;;;;;;3.33;2.25;;;;;;;;;;5027384;28;20391;-83
2021/07/08 08:27:50;;;;;;;2.95;2.65;;;;;;;;;;5027104;28;20206;-83
2021/07/08 08:30:17;;;;;;;2.50;2.30;;;;;;;;;;5008071;28;20826;-83
2021/07/08 08:32:44;;;;;;;2.88;2.58;;;;;;;;;;5009314;28;20268;-84
2021/07/08 08:35:11;;;;;;;3.78;2.60;;;;;;;;;;5012644;28;20183;-84
2021/07/08 08:37:37;;;;;;;5.15;2.72;;;;;;;;;;5028280;28;20246;-84
2021/07/08 08:40:04;;;;;;;3.97;2.55;;;;;;;;;;5027520;28;20180;-87
2021/07/08 08:42:31;;;;;;;2.97;2.63;;;;;;;;;;5023480;28;20199;-84
2021/07/08 08:44:57;;;;;;;3.35;2.50;;;;;;;;;;5023800;28;20180;-82
2021/07/08 08:47:24;;;;;;;3.72;2.85;;;;;;;;;;5011767;28;20207;-83
2021/07/08 08:49:55;;;;;;;2.95;2.63;;;;;;;;;;5012978;28;20244;-84
2021/07/08 08:52:21;;;;;;;3.08;2.28;;;;;;;;;;5027226;28;20218;-85
2021/07/08 08:54:51;;;;;;;3.90;2.70;;;;;;;;;;5010815;28;20184;-84
2021/07/08 08:57:17;;;;;;;4.63;2.50;;;;;;;;;;5007792;28;20309;-85
2021/07/08 08:59:43;;;;;;;5.75;2.83;;;;;;;;;;5010377;28;20236;-85
2021/07/08 09:02:09;;;;;;;4.25;3.00;;;;;;;;;;5026848;28;20220;-84
2021/07/08 09:04:35;;;;;;;6.40;3.00;;;;;;;;;;5012382;28;20251;-86
2021/07/08 09:07:21;;;;;;;4.50;2.60;;;;;;;;;;5027204;28;20413;-83
2021/07/08 09:09:47;;;;;;;3.30;2.97;;;;;;;;;;5025562;28;20243;-85
2021/07/08 09:12:14;;;;;;;3.00;2.22;;;;;;;;;;5022247;28;20212;-82
2021/07/08 09:14:40;;;;;;;2.70;2.20;;;;;;;;;;5009305;28;20194;-84
2021/07/08 09:17:16;;;;;;;3.20;2.90;;;;;;;;;;5027723;28;20276;-83
2021/07/08 09:19:42;;;;;;;2.90;2.40;;;;;;;;;;5012185;28;20485;-83
2021/07/08 09:22:08;;;;;;;3.60;2.63;;;;;;;;;;5026732;28;20453;-83
2021/07/08 09:24:34;;;;;;;2.97;2.70;;;;;;;;;;5024150;28;20433;-84
2021/07/08 09:27:02;;;;;;;3.03;2.17;;;;;;;;;;5022646;28;20405;-81
2021/07/08 09:29:28;;;;;;;4.40;2.30;;;;;;;;;;5011152;28;20428;-82
2021/07/08 09:31:59;;;;;;;2.67;2.43;;;;;;;;;;5031270;28;20446;-84
2021/07/08 09:34:26;;;;;;;3.23;2.53;;;;;;;;;;5031172;28;20441;-87
2021/07/08 09:37:03;;;;;;;3.10;2.00;;;;;;;;;;5030307;28;20434;-84
2021/07/08 09:39:39;;;;;;;3.15;2.63;;;;;;;;;;5026940;28;20436;-86
2021/07/08 09:42:06;;;;;;;3.30;2.47;;;;;;;;;;5026177;28;20187;-84
2021/07/08 09:44:32;;;;;;;3.50;2.47;;;;;;;;;;5030000;28;20942;-83
2021/07/08 09:46:58;;;;;;;6.23;3.23;;;;;;;;;;5031140;28;20849;-83
2021/07/08 09:49:26;;;;;;;4.22;3.30;;;;;;;;;;5030932;28;20531;-80
2021/07/08 09:51:52;;;;;;;3.20;2.33;;;;;;;;;;5014706;28;20547;-81
2021/07/08 09:54:42;;;;;;;3.67;2.33;;;;;;;;;;5010752;28;20421;-83
2021/07/08 09:57:09;;;;;;;4.10;3.13;;;;;;;;;;5023282;28;20927;-81
2021/07/08 09:59:35;;;;;;;3.27;2.97;;;;;;;;;;5029026;28;20418;-84
2021/07/08 10:02:01;;;;;;;5.30;2.70;;;;;;;;;;5030703;28;20442;-83
2021/07/08 10:04:27;;;;;;;4.33;2.50;;;;;;;;;;5029971;28;20781;-83
2021/07/08 10:06:54;;;;;;;3.35;3.05;;;;;;;;;;5014917;28;20431;-80
2021/07/08 10:09:21;;;;;;;3.03;2.20;;;;;;;;;;5010748;28;20341;-80
2021/07/08 10:11:57;;;;;;;3.30;2.60;;;;;;;;;;5011095;28;20514;-81
2021/07/08 10:14:24;;;;;;;2.60;2.40;;;;;;;;;;5029779;28;20384;-81
2021/07/08 10:16:52;;;;;;;3.83;3.10;;;;;;;;;;5014944;28;20448;-84
2021/07/08 10:19:19;;;;;;;2.90;2.60;;;;;;;;;;5030167;28;20217;-84
2021/07/08 10:21:48;;;;;;;3.90;3.10;;;;;;;;;;5028184;28;20200;-83
2021/07/08 10:24:14;;;;;;;2.70;2.50;;;;;;;;;;5025307;28;20449;-83
2021/07/08 10:26:40;;;;;;;3.15;2.55;;;;;;;;;;5013066;28;20421;-82
2021/07/08 10:29:08;;;;;;;3.23;2.93;;;;;;;;;;5029723;28;20213;-84
2021/07/08 10:31:35;;;;;;;4.28;2.60;;;;;;;;;;5029622;28;20755;-80
2021/07/08 10:34:06;;;;;;;4.68;2.45;;;;;;;;;;5014464;28;20206;-82
2021/07/08 10:36:32;;;;;;;3.13;2.83;;;;;;;;;;5010810;28;20209;-82
2021/07/08 10:39:03;;;;;;;4.50;2.70;;;;;;;;;;5025583;28;20421;-83
2021/07/08 10:41:35;;;;;;;2.77;2.40;;;;;;;;;;5040172;28;20486;-83
2021/07/08 10:44:01;;;;;;;4.00;2.20;;;;;;;;;;5016774;28;20534;-83
2021/07/08 10:46:37;;;;;;;2.20;2.00;;;;;;;;;;5029675;28;20417;-82
2021/07/08 10:49:12;;;;;;;2.53;2.33;;;;;;;;;;5014633;28;20469;-85
2021/07/08 10:51:40;;;;;;;3.70;2.87;;;;;;;;;;5026893;28;20433;-82
2021/07/08 10:54:26;;;;;;;3.00;2.00;;;;;;;;;;5009566;28;20396;-84
2021/07/08 10:56:52;;;;;;;4.57;2.87;;;;;;;;;;5010858;28;20393;-84
2021/07/08 10:59:18;;;;;;;2.10;2.00;;;;;;;;;;5029311;28;20485;-85
2021/07/08 11:01:45;;;;;;;3.20;2.90;;;;;;;;;;5029316;28;20413;-83
2021/07/08 11:04:12;;;;;;;3.97;2.50;;;;;;;;;;5028768;28;20455;-84
2021/07/08 11:06:39;;;;;;;3.10;2.80;;;;;;;;;;5026010;28;20420;-84
2021/07/08 11:09:05;;;;;;;4.77;2.53;;;;;;;;;;5024819;28;20462;-83
2021/07/08 11:11:31;;;;;;;2.37;2.17;;;;;;;;;;5013307;28;20412;-84
2021/07/08 11:13:58;;;;;;;2.40;2.20;;;;;;;;;;5013666;28;20441;-85
2021/07/08 11:16:43;;;;;;;2.80;2.60;;;;;;;;;;5014262;28;20582;-84
2021/07/08 11:19:11;;;;;;;3.23;2.93;;;;;;;;;;5013518;28;20917;-85
2021/07/08 11:21:55;;;;;;;3.30;2.50;;;;;;;;;;5011512;28;20442;-85
2021/07/08 11:24:22;;;;;;;3.70;2.60;;;;;;;;;;5023732;28;20437;-84
2021/07/08 11:27:05;;;;;;;2.60;2.40;;;;;;;;;;5025976;28;20561;-84
2021/07/08 11:29:45;;;;;;;2.53;2.30;;;;;;;;;;5027698;28;20794;-85
2021/07/08 11:32:18;;;;;;;2.60;2.40;;;;;;;;;;5013804;28;20461;-85
2021/07/08 11:34:57;;;;;;;3.23;2.93;;;;;;;;;;5028676;28;20416;-84
2021/07/08 11:37:26;;;;;;;4.13;2.60;;;;;;;;;;5029021;28;20448;-86
2021/07/08 11:39:56;;;;;;;1.90;1.70;;;;;;;;;;5028050;28;20454;-86
2021/07/08 11:42:23;;;;;;;2.47;2.27;;;;;;;;;;5008687;28;20515;-83
2021/07/08 11:44:50;;;;;;;3.00;2.70;;;;;;;;;;5010451;28;20456;-85
2021/07/08 11:47:16;;;;;;;3.73;2.97;;;;;;;;;;5028817;28;20442;-86
2021/07/08 11:49:43;;;;;;;2.13;1.87;;;;;;;;;;5028227;28;20716;-87
2021/07/08 11:52:19;;;;;;;3.07;2.87;;;;;;;;;;5028788;28;20436;-89
2021/07/08 11:54:58;;;;;;;5.00;2.23;;;;;;;;;;5010880;28;20439;-84
2021/07/08 11:57:24;;;;;;;2.70;2.50;;;;;;;;;;5039782;28;20439;-85
2021/07/08 11:59:50;;;;;;;2.00;1.80;;;;;;;;;;5010249;28;20488;-83
2021/07/08 12:02:36;;;;;;;4.40;2.40;;;;;;;;;;5028495;28;20428;-82
2021/07/08 12:05:17;;;;;;;4.27;2.80;;;;;;;;;;5012988;28;20447;-82
2021/07/08 12:08:03;;;;;;;3.23;2.33;;;;;;;;;;5013722;28;20447;-84
2021/07/08 12:10:39;;;;;;;2.90;2.60;;;;;;;;;;5012909;28;20444;-85
2021/07/08 12:13:05;;;;;;;2.60;2.40;;;;;;;;;;5028029;28;20415;-84
2021/07/08 12:15:31;;;;;;;4.40;2.50;;;;;;;;;;5024568;28;20437;-89
2021/07/08 12:17:59;;;;;;;2.77;2.53;;;;;;;;;;5009033;28;20398;-89
2021/07/08 12:20:26;;;;;;;3.20;2.50;;;;;;;;;;5037662;28;20429;-86
2021/07/08 12:23:02;;;;;;;7.53;2.90;;;;;;;;;;5032798;28;20487;-87
2021/07/08 12:25:29;;;;;;;7.60;2.93;;;;;;;;;;5028070;28;20412;-87
2021/07/08 12:27:56;;;;;;;2.80;2.60;;;;;;;;;;5027565;28;20438;-85
2021/07/08 12:30:23;;;;;;;3.90;2.17;;;;;;;;;;5022972;28;20465;-84
2021/07/08 12:33:03;;;;;;;3.57;2.33;;;;;;;;;;5008866;28;20403;-83
2021/07/08 12:35:43;;;;;;;10.33;6.67;;;;;;;;;;5012155;28;20384;-85
2021/07/08 12:38:10;;;;;;;4.50;3.03;;;;;;;;;;5028291;28;20409;-86
2021/07/08 12:40:36;;;;;;;5.87;3.30;;;;;;;;;;5028230;28;20944;-87
2021/07/08 12:43:07;;;;;;;4.47;2.90;;;;;;;;;;5028533;28;20488;-87
2021/07/08 12:45:35;;;;;;;2.30;2.10;;;;;;;;;;5025013;28;20436;-89
2021/07/08 12:48:01;;;;;;;2.63;2.33;;;;;;;;;;5008439;28;20392;-86
2021/07/08 12:50:36;;;;;;;12.80;4.53;;;;;;;;;;5010386;28;20572;-87
2021/07/08 12:53:06;;;;;;;2.43;2.23;;;;;;;;;;5013005;28;20450;-92
2021/07/08 12:55:48;;;;;;;2.50;2.27;;;;;;;;;;5027736;28;20433;-88
2021/07/08 12:58:14;;;;;;;4.60;2.27;;;;;;;;;;5028156;28;20437;-89
2021/07/08 13:00:40;;;;;;;2.60;2.40;;;;;;;;;;5025341;28;20448;-86
2021/07/08 13:03:07;;;;;;;5.13;2.80;;;;;;;;;;5023768;28;20440;-87
2021/07/08 13:05:34;;;;;;;2.47;1.90;;;;;;;;;;5011565;28;20416;-89
2021/07/08 13:08:00;;;;;;;2.40;2.17;;;;;;;;;;5027956;28;20955;-90
2021/07/08 13:10:33;;;;;;;2.77;2.20;;;;;;;;;;5027973;28;20468;-89
2021/07/08 13:13:00;;;;;;;2.50;2.30;;;;;;;;;;5027761;28;20793;-86
2021/07/08 13:15:26;;;;;;;2.90;2.50;;;;;;;;;;5022879;28;20775;-84
2021/07/08 13:18:04;;;;;;;2.80;2.10;;;;;;;;;;5035741;28;20916;-90
2021/07/08 13:20:30;;;;;;;1.97;1.87;;;;;;;;;;5011952;28;20418;-85
2021/07/08 13:22:56;;;;;;;7.70;4.70;;;;;;;;;;5027598;28;20419;-86
2021/07/08 13:25:27;;;;;;;3.97;3.23;;;;;;;;;;5027379;28;20418;-85
2021/07/08 13:27:54;;;;;;;2.90;2.30;;;;;;;;;;5011288;28;20500;-88
2021/07/08 13:30:40;;;;;;;2.57;2.37;;;;;;;;;;5022735;28;20463;-88
2021/07/08 13:33:13;;;;;;;2.23;2.03;;;;;;;;;;5019821;28;20425;-84
2021/07/08 13:35:48;;;;;;;4.17;2.20;;;;;;;;;;5028826;28;20431;-84
2021/07/08 13:38:15;;;;;;;2.50;2.03;;;;;;;;;;5013611;28;20465;-86
2021/07/08 13:40:41;;;;;;;1.97;1.83;;;;;;;;;;5027121;28;20416;-89
2021/07/08 13:43:13;;;;;;;2.40;1.97;;;;;;;;;;5027246;28;20458;-88
2021/07/08 13:45:39;;;;;;;2.97;1.77;;;;;;;;;;5024260;28;20424;-91
2021/07/08 13:48:18;;;;;;;3.10;2.07;;;;;;;;;;5023001;28;20434;-85
2021/07/08 13:50:45;;;;;;;3.20;1.83;;;;;;;;;;5024390;28;20437;-84
2021/07/08 13:53:12;;;;;;;2.37;2.03;;;;;;;;;;5027801;28;20410;-89
2021/07/08 13:55:38;;;;;;;2.50;1.67;;;;;;;;;;5027053;28;20505;-88
2021/07/08 13:58:05;;;;;;;2.37;2.17;;;;;;;;;;5012146;28;20466;-85
2021/07/08 14:00:31;;;;;;;1.70;1.60;;;;;;;;;;5023674;28;20435;-86
2021/07/08 14:02:57;;;;;;;2.30;2.10;;;;;;;;;;5008136;28;20409;-84
2021/07/08 14:05:23;;;;;;;2.90;2.03;;;;;;;;;;5027161;28;20426;-86
2021/07/08 14:07:50;;;;;;;2.80;1.97;;;;;;;;;;5026946;28;21024;-83
2021/07/08 14:10:16;;;;;;;1.93;1.73;;;;;;;;;;5027209;28;20440;-85
2021/07/08 14:12:42;;;;;;;1.90;1.80;;;;;;;;;;5024659;28;20458;-87
2021/07/08 14:15:08;;;;;;;3.73;2.40;;;;;;;;;;5053932;28;20415;-85
2021/07/08 14:17:34;;;;;;;3.10;2.80;;;;;;;;;;5009429;28;20473;-85
2021/07/08 14:20:00;;;;;;;2.20;2.00;;;;;;;;;;5030861;28;20416;-84
2021/07/08 14:22:26;;;;;;;2.73;2.53;;;;;;;;;;5030700;28;20421;-85
2021/07/08 14:24:52;;;;;;;2.87;2.07;;;;;;;;;;5029863;28;20426;-86
2021/07/08 14:27:18;;;;;;;2.10;2.00;;;;;;;;;;5010601;28;20539;-87
2021/07/08 14:29:44;;;;;;;2.43;2.23;;;;;;;;;;5011536;28;20474;-87
2021/07/08 14:32:10;;;;;;;3.70;2.50;;;;;;;;;;5030769;28;20468;-90
2021/07/08 14:34:36;;;;;;;2.57;2.37;;;;;;;;;;5029904;28;20427;-86
2021/07/08 14:37:04;;;;;;;2.27;1.90;;;;;;;;;;5014698;28;20418;-87
2021/07/08 14:39:30;;;;;;;2.20;2.00;;;;;;;;;;5025389;28;20408;-86
2021/07/08 14:42:00;;;;;;;2.50;2.30;;;;;;;;;;5026156;28;20434;-89
2021/07/08 14:44:32;;;;;;;3.33;2.40;;;;;;;;;;5014488;28;20414;-86
2021/07/08 14:46:58;;;;;;;2.90;1.87;;;;;;;;;;5029782;28;20452;-85
2021/07/08 14:49:27;;;;;;;2.00;1.80;;;;;;;;;;5014727;28;20465;-87